createdAt,value
2022-08-04T00:01:27.326Z,102047.00
2022-08-04T00:04:17.000Z,102040.00
2022-08-04T00:06:57.819Z,102051.00
2022-08-04T00:09:44.469Z,102045.00
2022-08-04T00:12:19.374Z,102041.00
2022-08-04T00:14:57.066Z,102043.00
2022-08-04T00:17:31.859Z,102030.00
2022-08-04T00:20:09.528Z,102026.00
2022-08-04T00:22:43.853Z,102015.00
2022-08-04T00:25:16.961Z,102017.00
2022-08-04T00:27:50.228Z,102008.00
2022-08-04T00:30:23.230Z,102001.00
2022-08-04T00:32:56.297Z,101999.00
2022-08-04T00:35:30.745Z,101992.00
2022-08-04T00:38:04.919Z,101987.00
2022-08-04T00:41:01.657Z,101985.00
2022-08-04T00:43:48.717Z,101970.00
2022-08-04T00:46:44.738Z,101973.00
2022-08-04T00:49:40.870Z,101973.00
2022-08-04T00:52:31.735Z,101968.00
2022-08-04T00:55:17.070Z,101964.00
2022-08-04T00:58:19.560Z,101957.00
2022-08-04T01:01:06.740Z,101952.00
2022-08-04T01:04:05.054Z,101939.00
2022-08-04T01:06:56.032Z,101944.00
2022-08-04T01:09:41.322Z,101942.00
2022-08-04T01:12:35.500Z,101929.00
2022-08-04T01:15:19.838Z,101926.00
2022-08-04T01:18:07.197Z,101921.00
2022-08-04T01:20:47.915Z,101922.00
2022-08-04T01:23:53.535Z,101934.00
2022-08-04T01:26:43.307Z,101919.00
2022-08-04T01:29:19.137Z,101922.00
2022-08-04T01:32:05.445Z,101913.00
2022-08-04T01:34:49.154Z,101914.00
2022-08-04T01:37:40.505Z,101915.00
2022-08-04T01:40:14.865Z,101912.00
2022-08-04T01:42:48.771Z,101916.00
2022-08-04T01:45:25.917Z,101906.00
2022-08-04T01:48:00.106Z,101896.00
2022-08-04T01:50:39.348Z,101901.00
2022-08-04T01:53:12.536Z,101902.00
2022-08-04T01:55:52.002Z,101895.00
2022-08-04T01:58:22.388Z,101899.00
2022-08-04T02:01:06.645Z,101881.00
2022-08-04T02:04:20.426Z,101896.00
2022-08-04T02:06:37.716Z,101897.00
2022-08-04T02:09:33.465Z,101913.00
2022-08-04T02:12:16.249Z,101909.00
2022-08-04T02:14:48.098Z,101898.00
2022-08-04T02:17:33.004Z,101904.00
2022-08-04T02:20:13.355Z,101897.00
2022-08-04T02:22:48.409Z,101902.00
2022-08-04T02:25:24.997Z,101905.00
2022-08-04T02:28:02.726Z,101906.00
2022-08-04T02:30:48.811Z,101909.00
2022-08-04T02:33:23.704Z,101899.00
2022-08-04T02:35:58.254Z,101897.00
2022-08-04T02:38:45.618Z,101891.00
2022-08-04T02:41:21.045Z,101883.00
2022-08-04T02:43:55.906Z,101890.00
2022-08-04T02:46:29.147Z,101883.00
2022-08-04T02:49:03.415Z,101880.00
2022-08-04T02:51:41.050Z,101879.00
2022-08-04T02:54:14.190Z,101884.00
2022-08-04T02:56:49.822Z,101883.00
2022-08-04T02:59:24.230Z,101880.00
2022-08-04T03:01:58.961Z,101874.00
2022-08-04T03:04:54.704Z,101873.00
2022-08-04T03:07:29.978Z,101865.00
2022-08-04T03:10:20.855Z,101861.00
2022-08-04T03:13:11.893Z,101870.00
2022-08-04T03:15:55.537Z,101852.00
2022-08-04T03:18:52.281Z,101863.00
2022-08-04T03:21:43.436Z,101860.00
2022-08-04T03:24:27.059Z,101865.00
2022-08-04T03:27:16.709Z,101862.00
2022-08-04T03:30:06.347Z,101860.00
2022-08-04T03:32:57.305Z,101864.00
2022-08-04T03:35:51.384Z,101852.00
2022-08-04T03:38:56.964Z,101849.00
2022-08-04T03:41:57.363Z,101850.00
2022-08-04T03:44:39.753Z,101848.00
2022-08-04T03:47:44.304Z,101850.00
2022-08-04T03:50:30.733Z,101855.00
2022-08-04T03:53:14.577Z,101849.00
2022-08-04T03:56:10.086Z,101856.00
2022-08-04T03:58:53.945Z,101845.00
2022-08-04T04:02:02.832Z,101844.00
2022-08-04T04:04:51.780Z,101838.00
2022-08-04T04:07:36.194Z,101836.00
2022-08-04T04:10:09.612Z,101842.00
2022-08-04T04:13:11.700Z,101838.00
2022-08-04T04:16:01.230Z,101840.00
2022-08-04T04:19:08.054Z,101837.00
2022-08-04T04:21:51.816Z,101837.00
2022-08-04T04:24:36.229Z,101837.00
2022-08-04T04:27:16.615Z,101839.00
2022-08-04T04:30:06.336Z,101844.00
2022-08-04T04:33:00.648Z,101846.00
2022-08-04T04:35:47.353Z,101842.00
2022-08-04T04:38:31.075Z,101849.00
2022-08-04T04:41:22.365Z,101848.00
2022-08-04T04:44:30.845Z,101856.00
2022-08-04T04:47:08.432Z,101859.00
2022-08-04T04:49:51.878Z,101857.00
2022-08-04T04:52:29.931Z,101861.00
2022-08-04T04:55:10.989Z,101865.00
2022-08-04T04:57:53.610Z,101870.00
2022-08-04T05:00:20.166Z,101871.00
2022-08-04T05:03:03.921Z,101870.00
2022-08-04T05:05:52.185Z,101861.00
2022-08-04T05:08:51.249Z,101864.00
2022-08-04T05:11:46.470Z,101881.00
2022-08-04T05:14:36.439Z,101872.00
2022-08-04T05:17:18.585Z,101873.00
2022-08-04T05:20:15.730Z,101878.00
2022-08-04T05:23:06.007Z,101884.00
2022-08-04T05:25:50.094Z,101894.00
2022-08-04T05:28:31.510Z,101894.00
2022-08-04T05:31:09.412Z,101892.00
2022-08-04T05:33:53.285Z,101883.00
2022-08-04T05:36:40.542Z,101891.00
2022-08-04T05:39:04.710Z,101883.00
2022-08-04T05:41:44.838Z,101878.00
2022-08-04T05:44:20.417Z,101889.00
2022-08-04T05:46:56.628Z,101901.00
2022-08-04T05:49:31.084Z,101895.00
2022-08-04T05:52:05.617Z,101904.00
2022-08-04T05:54:40.123Z,101904.00
2022-08-04T05:57:14.130Z,101908.00
2022-08-04T05:59:48.844Z,101902.00
2022-08-04T06:02:23.932Z,101903.00
2022-08-04T06:04:58.249Z,101909.00
2022-08-04T06:07:31.944Z,101913.00
2022-08-04T06:10:05.109Z,101914.00
2022-08-04T06:12:40.181Z,101906.00
2022-08-04T06:15:15.360Z,101915.00
2022-08-04T06:19:57.201Z,101906.00
2022-08-04T06:20:27.082Z,101912.00
2022-08-04T06:23:05.567Z,101911.00
2022-08-04T06:25:40.656Z,101919.00
2022-08-04T06:28:15.159Z,101919.00
2022-08-04T06:30:56.937Z,101907.00
2022-08-04T06:33:54.526Z,101919.00
2022-08-04T06:36:14.554Z,101898.00
2022-08-04T06:38:58.688Z,101900.00
2022-08-04T06:41:22.489Z,101909.00
2022-08-04T06:43:59.679Z,101902.00
2022-08-04T06:46:34.384Z,101908.00
2022-08-04T06:49:07.575Z,101923.00
2022-08-04T06:51:48.908Z,101912.00
2022-08-04T06:54:16.484Z,101926.00
2022-08-04T06:56:50.717Z,101913.00
2022-08-04T06:59:24.980Z,101923.00
2022-08-04T07:01:59.524Z,101925.00
2022-08-04T07:04:35.108Z,101923.00
2022-08-04T07:07:07.101Z,101923.00
2022-08-04T07:09:40.032Z,101919.00
2022-08-04T07:12:14.425Z,101919.00
2022-08-04T07:14:48.820Z,101911.00
2022-08-04T07:17:22.330Z,101907.00
2022-08-04T07:19:58.913Z,101909.00
2022-08-04T07:22:36.526Z,101917.00
2022-08-04T07:25:12.905Z,101920.00
2022-08-04T07:27:48.554Z,101919.00
2022-08-04T07:30:24.462Z,101920.00
2022-08-04T07:32:59.310Z,101919.00
2022-08-04T07:36:05.518Z,101922.00
2022-08-04T07:38:11.858Z,101931.00
2022-08-04T07:40:45.441Z,101926.00
2022-08-04T07:43:19.776Z,101928.00
2022-08-04T07:45:57.992Z,101933.00
2022-08-04T07:48:31.167Z,101930.00
2022-08-04T07:51:04.533Z,101926.00
2022-08-04T07:53:54.442Z,101929.00
2022-08-04T07:56:13.984Z,101932.00
2022-08-04T07:58:46.783Z,101933.00
2022-08-04T08:01:22.238Z,101930.00
2022-08-04T08:04:00.892Z,101932.00
2022-08-04T08:06:37.473Z,101932.00
2022-08-04T08:09:15.950Z,101931.00
2022-08-04T08:12:38.401Z,101931.00
2022-08-04T08:14:28.948Z,101934.00
2022-08-04T08:17:04.891Z,101931.00
2022-08-04T08:19:38.953Z,101933.00
2022-08-04T08:22:12.892Z,101929.00
2022-08-04T08:24:45.916Z,101933.00
2022-08-04T08:27:18.636Z,101921.00
2022-08-04T08:29:53.058Z,101915.00
2022-08-04T08:32:29.967Z,101920.00
2022-08-04T08:35:03.470Z,101920.00
2022-08-04T08:37:43.932Z,101916.00
2022-08-04T08:40:49.114Z,101928.00
2022-08-04T08:44:03.941Z,101927.00
2022-08-04T08:46:49.839Z,101925.00
2022-08-04T08:50:02.874Z,101927.00
2022-08-04T08:53:01.104Z,101931.00
2022-08-04T08:55:34.633Z,101925.00
2022-08-04T08:58:25.297Z,101926.00
2022-08-04T09:01:12.079Z,101925.00
2022-08-04T09:03:58.704Z,101921.00
2022-08-04T09:06:42.680Z,101928.00
2022-08-04T09:09:33.902Z,101926.00
2022-08-04T09:12:17.487Z,101927.00
2022-08-04T09:15:12.199Z,101921.00
2022-08-04T09:17:52.664Z,101914.00
2022-08-04T09:20:27.520Z,101924.00
2022-08-04T09:23:14.399Z,101915.00
2022-08-04T09:25:49.257Z,101918.00
2022-08-04T09:28:52.938Z,101915.00
2022-08-04T09:31:17.137Z,101921.00
2022-08-04T09:34:11.607Z,101920.00
2022-08-04T09:36:51.898Z,101909.00
2022-08-04T09:39:29.516Z,101909.00
2022-08-04T09:42:14.632Z,101917.00
2022-08-04T09:45:01.968Z,101919.00
2022-08-04T09:47:44.685Z,101922.00
2022-08-04T09:50:41.739Z,101913.00
2022-08-04T09:53:37.741Z,101917.00
2022-08-04T09:56:21.519Z,101895.00
2022-08-04T09:59:02.780Z,101898.00
2022-08-04T10:01:37.384Z,101906.00
2022-08-04T10:04:17.286Z,101896.00
2022-08-04T10:07:08.400Z,101897.00
2022-08-04T10:09:55.711Z,101892.00
2022-08-04T10:12:33.741Z,101893.00
2022-08-04T10:15:08.729Z,101902.00
2022-08-04T10:17:52.222Z,101900.00
2022-08-04T10:20:36.464Z,101884.00
2022-08-04T10:23:16.492Z,101884.00
2022-08-04T10:26:07.715Z,101885.00
2022-08-04T10:28:39.588Z,101886.00
2022-08-04T10:31:15.132Z,101884.00
2022-08-04T10:34:06.312Z,101873.00
2022-08-04T10:36:41.273Z,101870.00
2022-08-04T10:39:43.703Z,101869.00
2022-08-04T10:42:01.338Z,101865.00
2022-08-04T10:44:42.304Z,101879.00
2022-08-04T10:47:14.947Z,101896.00
2022-08-04T10:49:56.779Z,101890.00
2022-08-04T10:52:37.400Z,101903.00
2022-08-04T10:55:21.415Z,101898.00
2022-08-04T10:58:11.457Z,101920.00
2022-08-04T11:00:46.037Z,101918.00
2022-08-04T11:03:39.298Z,101921.00
2022-08-04T11:06:12.472Z,101933.00
2022-08-04T11:08:54.299Z,101937.00
2022-08-04T11:12:01.000Z,101943.00
2022-08-04T11:14:27.483Z,101947.00
2022-08-04T11:17:14.323Z,101956.00
2022-08-04T11:19:54.598Z,101961.00
2022-08-04T11:22:30.725Z,101958.00
2022-08-04T11:25:28.363Z,101962.00
2022-08-04T11:28:24.287Z,101973.00
2022-08-04T11:30:59.692Z,101974.00
2022-08-04T11:33:34.780Z,101981.00
2022-08-04T11:36:16.699Z,101975.00
2022-08-04T11:39:06.933Z,101978.00
2022-08-04T11:41:48.238Z,101972.00
2022-08-04T11:44:32.031Z,101965.00
2022-08-04T11:47:06.655Z,101971.00
2022-08-04T11:49:56.519Z,101978.00
2022-08-04T11:52:22.036Z,101969.00
2022-08-04T11:54:55.940Z,101968.00
2022-08-04T11:57:35.995Z,101960.00
2022-08-04T12:00:12.253Z,101958.00
2022-08-04T12:03:06.338Z,101961.00
2022-08-04T12:05:41.165Z,101973.00
2022-08-04T12:08:21.999Z,101973.00
2022-08-04T12:11:02.770Z,101966.00
2022-08-04T12:14:00.229Z,101962.00
2022-08-04T12:16:37.420Z,101967.00
2022-08-04T12:19:21.849Z,101979.00
2022-08-04T12:21:57.972Z,101988.00
2022-08-04T12:24:43.036Z,101995.00
2022-08-04T12:27:30.456Z,101999.00
2022-08-04T12:30:58.483Z,102007.00
2022-08-04T12:32:48.383Z,102004.00
2022-08-04T12:35:18.527Z,102000.00
2022-08-04T12:38:10.772Z,102005.00
2022-08-04T12:41:00.535Z,102008.00
2022-08-04T12:43:46.766Z,101996.00
2022-08-04T12:46:30.363Z,102008.00
2022-08-04T12:49:05.218Z,102011.00
2022-08-04T12:52:08.181Z,102010.00
2022-08-04T12:54:25.791Z,102011.00
2022-08-04T12:57:03.515Z,102004.00
2022-08-04T12:59:57.202Z,102013.00
2022-08-04T13:02:37.818Z,102008.00
2022-08-04T13:05:17.223Z,102011.00
2022-08-04T13:07:48.583Z,102013.00
2022-08-04T13:10:23.189Z,102012.00
2022-08-04T13:13:01.488Z,102007.00
2022-08-04T13:15:47.162Z,102010.00
2022-08-04T13:18:17.576Z,102014.00
2022-08-04T13:20:51.286Z,102004.00
2022-08-04T13:23:24.937Z,102008.00
2022-08-04T13:26:44.888Z,102007.00
2022-08-04T13:28:34.832Z,102009.00
2022-08-04T13:31:09.894Z,102003.00
2022-08-04T13:33:45.063Z,102010.00
2022-08-04T13:36:22.728Z,102001.00
2022-08-04T13:38:57.594Z,102009.00
2022-08-04T13:41:31.920Z,102010.00
2022-08-04T13:44:18.143Z,102002.00
2022-08-04T13:46:55.402Z,102004.00
2022-08-04T13:49:42.537Z,102003.00
2022-08-04T13:52:10.624Z,101999.00
2022-08-04T13:54:53.551Z,101992.00
2022-08-04T13:57:29.334Z,101984.00
2022-08-04T14:00:06.366Z,101981.00
2022-08-04T14:03:00.252Z,101987.00
2022-08-04T14:06:00.051Z,101992.00
2022-08-04T14:08:13.419Z,101989.00
2022-08-04T14:10:46.321Z,101979.00
2022-08-04T14:13:19.132Z,101975.00
2022-08-04T14:16:01.133Z,101974.00
2022-08-04T14:18:35.679Z,101972.00
2022-08-04T14:21:16.117Z,101963.00
2022-08-04T14:23:59.641Z,101952.00
2022-08-04T14:26:36.980Z,101937.00
2022-08-04T14:29:27.509Z,101940.00
2022-08-04T14:32:01.534Z,101934.00
2022-08-04T14:34:34.662Z,101926.00
2022-08-04T14:37:19.244Z,101921.00
2022-08-04T14:40:17.655Z,101918.00
2022-08-04T14:42:44.659Z,101917.00
2022-08-04T14:45:18.818Z,101920.00
2022-08-04T14:47:53.319Z,101916.00
2022-08-04T14:50:28.362Z,101916.00
2022-08-04T14:53:13.185Z,101922.00
2022-08-04T14:55:50.223Z,101917.00
2022-08-04T14:58:35.957Z,101909.00
2022-08-04T15:01:02.889Z,101906.00
2022-08-04T15:03:37.786Z,101908.00
2022-08-04T15:06:15.301Z,101908.00
2022-08-04T15:08:50.496Z,101903.00
2022-08-04T15:11:24.256Z,101903.00
2022-08-04T15:13:59.175Z,101904.00
2022-08-04T15:16:33.801Z,101894.00
2022-08-04T15:19:10.909Z,101887.00
2022-08-04T15:21:44.614Z,101886.00
2022-08-04T15:24:18.668Z,101880.00
2022-08-04T15:26:53.387Z,101862.00
2022-08-04T15:29:31.314Z,101854.00
2022-08-04T15:32:09.388Z,101865.00
2022-08-04T15:34:55.040Z,101861.00
2022-08-04T15:37:32.481Z,101849.00
2022-08-04T15:40:33.016Z,101835.00
2022-08-04T15:43:08.926Z,101838.00
2022-08-04T15:46:41.202Z,101824.00
2022-08-04T15:48:28.376Z,101817.00
2022-08-04T15:51:08.187Z,101806.00
2022-08-04T15:54:02.965Z,101794.00
2022-08-04T15:56:35.718Z,101792.00
2022-08-04T15:59:08.718Z,101784.00
2022-08-04T16:01:41.504Z,101786.00
2022-08-04T16:04:28.603Z,101781.00
2022-08-04T16:07:09.587Z,101783.00
2022-08-04T16:09:46.768Z,101784.00
2022-08-04T16:12:52.347Z,101788.00
2022-08-04T16:14:55.974Z,101784.00
2022-08-04T16:17:30.587Z,101778.00
2022-08-04T16:20:07.726Z,101778.00
2022-08-04T16:22:42.524Z,101766.00
2022-08-04T16:25:15.380Z,101755.00
2022-08-04T16:27:48.909Z,101749.00
2022-08-04T16:30:22.253Z,101747.00
2022-08-04T16:32:56.599Z,101738.00
2022-08-04T16:35:32.530Z,101726.00
2022-08-04T16:38:19.484Z,101713.00
2022-08-04T16:40:59.707Z,101714.00
2022-08-04T16:43:34.290Z,101717.00
2022-08-04T16:46:15.828Z,101712.00
2022-08-04T16:48:42.068Z,101702.00
2022-08-04T16:51:18.396Z,101703.00
2022-08-04T16:54:04.314Z,101696.00
2022-08-04T16:56:28.357Z,101698.00
2022-08-04T16:59:04.971Z,101688.00
2022-08-04T17:01:38.014Z,101689.00
2022-08-04T17:04:10.986Z,101687.00
2022-08-04T17:06:45.044Z,101693.00
2022-08-04T17:09:28.651Z,101691.00
2022-08-04T17:11:59.905Z,101682.00
2022-08-04T17:14:34.385Z,101678.00
2022-08-04T17:17:08.696Z,101662.00
2022-08-04T17:19:41.490Z,101682.00
2022-08-04T17:22:14.419Z,101682.00
2022-08-04T17:24:47.357Z,101686.00
2022-08-04T17:28:08.595Z,101680.00
2022-08-04T17:29:54.500Z,101675.00
2022-08-04T17:32:27.679Z,101679.00
2022-08-04T17:35:04.008Z,101688.00
2022-08-04T17:37:39.704Z,101695.00
2022-08-04T17:40:18.514Z,101695.00
2022-08-04T17:42:50.449Z,101703.00
2022-08-04T17:45:50.634Z,101717.00
2022-08-04T17:47:59.071Z,101713.00
2022-08-04T17:50:34.756Z,101721.00
2022-08-04T17:53:11.953Z,101718.00
2022-08-04T17:55:51.969Z,101729.00
2022-08-04T17:58:27.074Z,101736.00
2022-08-04T18:03:41.784Z,101745.00
2022-08-04T18:06:19.132Z,101756.00
2022-08-04T18:08:58.138Z,101751.00
2022-08-04T18:11:41.802Z,101767.00
2022-08-04T18:14:10.602Z,101777.00
2022-08-04T18:16:54.421Z,101777.00
2022-08-04T18:19:31.288Z,101786.00
2022-08-04T18:22:02.816Z,101792.00
2022-08-04T18:24:55.483Z,101804.00
2022-08-04T18:30:15.062Z,101802.00
2022-08-04T18:32:22.285Z,101806.00
2022-08-04T18:34:59.376Z,101809.00
2022-08-04T18:38:05.367Z,101803.00
2022-08-04T18:40:26.486Z,101802.00
2022-08-04T18:42:46.251Z,101811.00
2022-08-04T18:45:19.694Z,101823.00
2022-08-04T18:47:58.902Z,101822.00
2022-08-04T18:50:58.965Z,101823.00
2022-08-04T18:53:05.463Z,101829.00
2022-08-04T18:55:57.099Z,101838.00
2022-08-04T18:58:17.203Z,101836.00
2022-08-04T19:00:47.241Z,101834.00
2022-08-04T19:03:25.657Z,101834.00
2022-08-04T19:05:59.856Z,101846.00
2022-08-04T19:08:35.446Z,101839.00
2022-08-04T19:11:37.133Z,101846.00
2022-08-04T19:13:54.775Z,101842.00
2022-08-04T19:16:23.087Z,101832.00
2022-08-04T19:18:56.142Z,101846.00
2022-08-04T19:22:00.483Z,101851.00
2022-08-04T19:24:10.609Z,101843.00
2022-08-04T19:26:39.744Z,101842.00
2022-08-04T19:29:12.917Z,101844.00
2022-08-04T19:31:51.297Z,101849.00
2022-08-04T19:34:33.035Z,101848.00
2022-08-04T19:36:58.180Z,101847.00
2022-08-04T19:39:32.138Z,101853.00
2022-08-04T19:42:07.383Z,101853.00
2022-08-04T19:44:43.763Z,101873.00
2022-08-04T19:48:12.186Z,101883.00
2022-08-04T19:50:05.232Z,101889.00
2022-08-04T19:52:33.924Z,101889.00
2022-08-04T19:54:56.304Z,101887.00
2022-08-04T19:57:35.757Z,101896.00
2022-08-04T20:00:04.965Z,101897.00
2022-08-04T20:02:38.162Z,101904.00
2022-08-04T20:05:12.632Z,101896.00
2022-08-04T20:07:45.877Z,101908.00
2022-08-04T20:10:23.931Z,101901.00
2022-08-04T20:12:55.886Z,101903.00
2022-08-04T20:15:28.182Z,101904.00
2022-08-04T20:20:35.057Z,101905.00
2022-08-04T20:23:10.199Z,101916.00
2022-08-04T20:25:43.997Z,101919.00
2022-08-04T20:28:36.014Z,101927.00
2022-08-04T20:30:52.572Z,101925.00
2022-08-04T20:33:25.785Z,101940.00
2022-08-04T20:36:05.270Z,101937.00
2022-08-04T20:38:34.171Z,101948.00
2022-08-04T20:41:07.528Z,101953.00
2022-08-04T20:43:40.363Z,101948.00
2022-08-04T20:46:18.145Z,101945.00
2022-08-04T20:48:49.232Z,101951.00
2022-08-04T20:53:57.664Z,101948.00
2022-08-04T20:56:31.752Z,101953.00
2022-08-04T20:59:07.785Z,101954.00
2022-08-04T21:01:39.369Z,101959.00
2022-08-04T21:04:33.769Z,101962.00
2022-08-04T21:07:16.893Z,101963.00
2022-08-04T21:09:52.596Z,101972.00
2022-08-04T21:12:27.256Z,101974.00
2022-08-04T21:15:14.184Z,101973.00
2022-08-04T21:17:58.421Z,101972.00
2022-08-04T21:20:13.001Z,101965.00
2022-08-04T21:22:44.650Z,101966.00
2022-08-04T21:25:18.507Z,101963.00
2022-08-04T21:27:52.383Z,101959.00
2022-08-04T21:30:26.576Z,101952.00
2022-08-04T21:32:59.676Z,101954.00
2022-08-04T21:35:36.753Z,101948.00
2022-08-04T21:38:17.672Z,101949.00
2022-08-04T21:40:40.745Z,101938.00
2022-08-04T21:43:13.738Z,101930.00
2022-08-04T21:45:47.830Z,101932.00
2022-08-04T21:48:21.916Z,101933.00
2022-08-04T21:50:55.523Z,101926.00
2022-08-04T21:53:29.679Z,101929.00
2022-08-04T21:56:06.671Z,101936.00
2022-08-04T21:58:38.695Z,101933.00
2022-08-04T22:01:13.855Z,101928.00
2022-08-04T22:03:52.574Z,101926.00
2022-08-04T22:06:29.786Z,101934.00
2022-08-04T22:09:02.876Z,101933.00
2022-08-04T22:11:48.123Z,101927.00
2022-08-04T22:14:16.082Z,101929.00
2022-08-04T22:16:55.316Z,101933.00
2022-08-04T22:19:40.332Z,101930.00
2022-08-04T22:22:02.494Z,101925.00
2022-08-04T22:24:35.308Z,101935.00
2022-08-04T22:27:11.081Z,101930.00
2022-08-04T22:29:45.012Z,101931.00
2022-08-04T22:32:16.808Z,101935.00
2022-08-04T22:34:53.253Z,101938.00
2022-08-04T22:37:35.995Z,101939.00
2022-08-04T22:39:58.537Z,101931.00
2022-08-04T22:42:32.447Z,101933.00
2022-08-04T22:45:08.003Z,101939.00
2022-08-04T22:47:40.979Z,101941.00
2022-08-04T22:50:26.918Z,101945.00
2022-08-04T22:52:55.673Z,101941.00
2022-08-04T22:55:23.540Z,101946.00
2022-08-04T22:58:04.968Z,101931.00
2022-08-04T23:00:36.348Z,101936.00
2022-08-04T23:03:11.277Z,101939.00
2022-08-04T23:05:44.456Z,101942.00
2022-08-04T23:08:18.562Z,101939.00
2022-08-04T23:10:51.827Z,101923.00
2022-08-04T23:13:24.795Z,101930.00
2022-08-04T23:15:57.955Z,101933.00
2022-08-04T23:18:30.854Z,101934.00
2022-08-04T23:21:06.285Z,101920.00
2022-08-04T23:23:45.438Z,101917.00
2022-08-04T23:26:20.225Z,101914.00
2022-08-04T23:28:54.282Z,101911.00
2022-08-04T23:31:41.065Z,101903.00
2022-08-04T23:34:02.103Z,101898.00
2022-08-04T23:36:34.873Z,101899.00
2022-08-04T23:39:08.752Z,101896.00
2022-08-04T23:41:53.739Z,101886.00
2022-08-04T23:44:17.509Z,101892.00
2022-08-04T23:46:50.804Z,101894.00
2022-08-04T23:49:25.231Z,101875.00
2022-08-04T23:51:59.118Z,101872.00
2022-08-04T23:54:32.470Z,101877.00
2022-08-04T23:57:08.949Z,101870.00
2022-08-04T23:59:52.819Z,101870.00
